Terminal Aerodrome Forecast
Issued by NWS

Home | Current Version | Previous Version | Text Only | Print | Product List | Glossary Off
Versions: 1 2 3 4 5 6 7 8 9 10 11 12 13 14 15 16 17 18 19 20 21 22 23 24 25 26 27

000
FTUS43 KTOP 241015 AAA
TAFFOE
TAF AMD
KFOE 241015Z 2410/2506 14010KT 6SM BR SCT150 WS020/15040KT
     FM241300 13012KT P6SM SCT150
     FM241600 17016G24KT P6SM SCT100
     FM242000 20016G24KT P6SM SCT150
     FM250200 26011KT P6SM SCT150=

USA.gov is the U.S. government's official web portal to all federal, state and local government web resources and services.